Terminal Aerodrome Forecast
Issued by NWS Albany, NY

Home | Current Version | Previous Version | Text Only | Print | Product List | Glossary On
Versions: 1 2 3 4 5 6 7 8 9 10 11 12 13 14 15 16 17 18 19 20 21 22 23 24 25 26 27 28 29 30
000
FTUS41 KALY 221138
TAFGFL
TAF
KGFL 221138Z 2212/2312 01002KT 1SM BR OVC005
      TEMPO 2212/2215 3SM BR SCT005 BKN015
     FM221500 05003KT 3SM BR BKN015
      TEMPO 2215/2218 2SM BR BKN002
     FM221900 05003KT 3SM BR OVC015
     FM230000 02004KT 4SM BR OVC015
     FM230600 03006KT P6SM OVC015=

USA.gov is the U.S. government's official web portal to all federal, state and local government web resources and services.